Time;durP1;ratioP1;P1;durP2;ratioP2;P2;SDS_P1;SDS_P2;PMS_P1;PMS_P2;Temp;Humidity;BMP_temperature;BMP_pressure;BME280_temperature;BME280_humidity;BME280_pressure;Samples;Min_cycle;Max_cycle;Signal;HPM_P1;HPM_P2
2021/10/15 00:02:13;;;;;;;12.20;8.27;;;12.40;99.90;;;;;;5071520;28;20201;-69
2021/10/15 00:04:38;;;;;;;11.27;8.53;;;12.40;99.90;;;;;;5078914;28;20173;-69
2021/10/15 00:07:04;;;;;;;13.47;9.33;;;12.40;99.90;;;;;;5091600;28;20181;-70
2021/10/15 00:09:32;;;;;;;18.40;8.87;;;12.40;99.90;;;;;;5078019;28;20174;-70
2021/10/15 00:11:58;;;;;;;12.30;8.70;;;12.40;99.90;;;;;;5071098;28;20177;-70
2021/10/15 00:14:23;;;;;;;10.93;9.13;;;12.40;99.90;;;;;;5071304;28;20405;-71
2021/10/15 00:16:49;;;;;;;12.20;8.93;;;12.40;99.90;;;;;;5071289;28;20194;-70
2021/10/15 00:19:14;;;;;;;9.53;7.33;;;12.40;99.90;;;;;;5071489;28;20555;-70
2021/10/15 00:21:40;;;;;;;11.50;7.67;;;12.40;99.90;;;;;;5071206;28;20197;-70
2021/10/15 00:24:06;;;;;;;12.63;8.57;;;12.30;99.90;;;;;;5070883;28;20200;-70
2021/10/15 00:26:31;;;;;;;12.73;8.30;;;12.30;99.90;;;;;;5070860;28;20197;-70
2021/10/15 00:28:57;;;;;;;13.60;8.70;;;12.40;99.90;;;;;;5071382;28;20173;-70
2021/10/15 00:31:22;;;;;;;10.73;8.37;;;12.30;99.90;;;;;;5071144;28;20621;-70
2021/10/15 00:33:48;;;;;;;9.73;7.30;;;12.30;99.90;;;;;;5073199;28;20660;-70
2021/10/15 00:36:13;;;;;;;11.70;8.93;;;12.30;99.90;;;;;;5091040;28;20188;-70
2021/10/15 00:38:39;;;;;;;11.90;6.47;;;12.20;99.90;;;;;;5091250;28;20170;-70
2021/10/15 00:41:04;;;;;;;10.00;6.37;;;12.20;99.90;;;;;;5091188;28;20189;-70
2021/10/15 00:43:30;;;;;;;8.70;6.83;;;12.20;99.90;;;;;;5091094;28;20624;-67
2021/10/15 00:45:55;;;;;;;12.23;7.27;;;12.20;99.90;;;;;;5091167;28;20607;-70
2021/10/15 00:48:21;;;;;;;8.30;5.87;;;12.10;99.90;;;;;;5095098;28;20201;-70
2021/10/15 00:50:48;;;;;;;11.57;6.57;;;12.10;99.90;;;;;;5095294;28;20716;-70
2021/10/15 00:53:13;;;;;;;8.03;6.20;;;12.10;99.90;;;;;;5094871;28;20542;-70
2021/10/15 00:55:39;;;;;;;9.33;6.87;;;12.10;99.90;;;;;;5095162;28;20399;-70
2021/10/15 00:58:05;;;;;;;8.57;6.47;;;12.10;99.90;;;;;;5095004;28;20836;-70
2021/10/15 01:00:30;;;;;;;11.47;6.60;;;12.10;99.90;;;;;;5095055;28;20205;-70
2021/10/15 01:02:57;;;;;;;9.43;5.47;;;12.10;99.90;;;;;;5094744;28;20274;-70
2021/10/15 01:05:23;;;;;;;11.67;6.93;;;12.00;99.90;;;;;;5094256;28;20194;-70
2021/10/15 01:07:49;;;;;;;7.40;6.03;;;12.00;99.90;;;;;;5094253;28;20431;-70
2021/10/15 01:10:16;;;;;;;7.07;5.90;;;12.00;99.90;;;;;;5094331;28;20419;-70
2021/10/15 01:12:43;;;;;;;7.00;5.33;;;12.00;99.90;;;;;;5094298;28;20959;-71
2021/10/15 01:15:09;;;;;;;8.30;5.70;;;12.00;99.90;;;;;;5094033;28;20567;-70
2021/10/15 01:17:34;;;;;;;8.77;5.93;;;12.10;99.90;;;;;;5077009;28;20452;-70
2021/10/15 01:20:00;;;;;;;10.87;7.73;;;12.00;99.90;;;;;;5071693;28;20204;-70
2021/10/15 01:22:28;;;;;;;6.17;4.93;;;12.00;99.90;;;;;;5072359;28;20198;-71
2021/10/15 01:24:54;;;;;;;8.10;5.50;;;12.00;99.90;;;;;;5072357;28;20171;-70
2021/10/15 01:27:20;;;;;;;9.87;6.30;;;12.00;99.90;;;;;;5075975;28;20550;-70
2021/10/15 01:29:45;;;;;;;5.40;4.70;;;12.00;99.90;;;;;;5091718;28;20506;-70
2021/10/15 01:32:14;;;;;;;6.90;5.00;;;12.00;99.90;;;;;;5091468;28;20560;-71
2021/10/15 01:34:39;;;;;;;7.23;5.37;;;12.00;99.90;;;;;;5082907;28;20491;-70
2021/10/15 01:37:05;;;;;;;6.33;5.40;;;12.00;99.90;;;;;;5072161;28;20519;-70
2021/10/15 01:39:30;;;;;;;5.50;4.33;;;12.00;99.90;;;;;;5072129;28;20257;-70
2021/10/15 01:41:56;;;;;;;5.87;5.00;;;12.00;99.90;;;;;;5071939;28;20205;-70
2021/10/15 01:44:22;;;;;;;7.33;4.40;;;12.00;99.90;;;;;;5071917;28;20177;-70
2021/10/15 01:46:48;;;;;;;5.60;4.27;;;11.90;99.90;;;;;;5071842;28;20224;-70
2021/10/15 01:49:13;;;;;;;5.80;5.13;;;11.90;99.90;;;;;;5072227;28;20165;-70
2021/10/15 01:51:39;;;;;;;7.77;5.37;;;11.90;99.90;;;;;;5072123;28;20167;-70
2021/10/15 01:54:05;;;;;;;6.87;4.83;;;11.90;99.90;;;;;;5071851;28;20194;-70
2021/10/15 01:56:31;;;;;;;7.50;5.60;;;11.90;99.90;;;;;;5071757;28;20201;-70
2021/10/15 01:58:56;;;;;;;6.57;5.00;;;11.90;99.90;;;;;;5071199;28;20208;-70
2021/10/15 02:01:24;;;;;;;6.30;5.53;;;11.90;99.90;;;;;;5071533;28;20452;-70
2021/10/15 02:03:49;;;;;;;10.53;5.30;;;11.90;99.90;;;;;;5072590;28;20174;-68
2021/10/15 02:06:14;;;;;;;6.50;5.27;;;11.90;99.90;;;;;;5092117;28;20442;-69
2021/10/15 02:08:40;;;;;;;6.80;4.67;;;11.90;99.90;;;;;;5092018;28;20169;-69
2021/10/15 02:11:05;;;;;;;5.80;4.60;;;11.90;99.90;;;;;;5091897;28;20483;-68
2021/10/15 02:13:31;;;;;;;6.67;5.03;;;11.90;99.90;;;;;;5091829;28;20173;-69
2021/10/15 02:15:59;;;;;;;6.83;5.60;;;11.90;99.90;;;;;;5091755;28;20207;-69
2021/10/15 02:18:24;;;;;;;6.80;5.63;;;11.90;99.90;;;;;;5091521;28;20178;-68
2021/10/15 02:20:49;;;;;;;7.43;4.30;;;11.90;99.90;;;;;;5091512;28;20406;-69
2021/10/15 02:23:15;;;;;;;8.50;4.90;;;11.90;99.90;;;;;;5091380;28;20174;-69
2021/10/15 02:25:41;;;;;;;7.47;4.53;;;11.90;99.90;;;;;;5091449;28;20162;-69
2021/10/15 02:28:06;;;;;;;7.93;5.77;;;11.90;99.90;;;;;;5091859;28;20182;-68
2021/10/15 02:30:32;;;;;;;6.20;4.73;;;11.90;99.90;;;;;;5091404;28;20190;-70
2021/10/15 02:32:58;;;;;;;5.27;4.20;;;11.90;99.90;;;;;;5091434;28;20210;-71
2021/10/15 02:35:23;;;;;;;5.90;5.00;;;11.90;99.90;;;;;;5091192;28;20185;-71
2021/10/15 02:37:49;;;;;;;7.50;4.90;;;11.90;99.90;;;;;;5091310;28;20476;-68
2021/10/15 02:40:14;;;;;;;5.30;4.70;;;11.90;99.90;;;;;;5091265;28;20172;-70
2021/10/15 02:42:41;;;;;;;8.40;5.77;;;11.90;99.90;;;;;;5091077;28;20383;-69
2021/10/15 02:45:08;;;;;;;7.50;4.77;;;11.90;99.90;;;;;;5090882;28;20166;-69
2021/10/15 02:47:33;;;;;;;9.10;5.80;;;11.90;99.90;;;;;;5090975;28;20561;-68
2021/10/15 02:49:59;;;;;;;5.73;4.00;;;11.90;99.90;;;;;;5091164;28;20471;-68
2021/10/15 02:52:24;;;;;;;6.23;4.53;;;11.90;99.90;;;;;;5090892;28;20177;-69
2021/10/15 02:54:50;;;;;;;3.90;3.50;;;11.90;99.90;;;;;;5090790;28;20188;-69
2021/10/15 02:57:16;;;;;;;7.10;4.33;;;11.90;99.90;;;;;;5090757;28;20193;-69
2021/10/15 02:59:41;;;;;;;5.67;3.70;;;11.90;99.90;;;;;;5090676;28;20174;-70
2021/10/15 03:02:07;;;;;;;5.30;3.87;;;11.90;99.90;;;;;;5090615;28;20485;-69
2021/10/15 03:04:32;;;;;;;5.93;5.33;;;11.80;99.90;;;;;;5090748;28;20178;-69
2021/10/15 03:06:58;;;;;;;6.37;4.20;;;11.90;99.90;;;;;;5090564;28;20224;-69
2021/10/15 03:09:23;;;;;;;7.43;5.40;;;11.90;99.90;;;;;;5090198;28;20162;-68
2021/10/15 03:11:48;;;;;;;5.07;4.53;;;11.80;99.90;;;;;;5090039;28;20186;-69
2021/10/15 03:14:14;;;;;;;6.20;4.47;;;11.80;99.90;;;;;;5088991;28;20169;-69
2021/10/15 03:16:39;;;;;;;7.97;4.90;;;11.80;99.90;;;;;;5089762;28;20225;-69
2021/10/15 03:19:05;;;;;;;8.00;5.27;;;11.80;99.90;;;;;;5090283;28;20272;-69
2021/10/15 03:21:30;;;;;;;7.30;5.63;;;11.80;99.90;;;;;;5090603;28;20271;-69
2021/10/15 03:23:56;;;;;;;6.33;5.20;;;11.80;99.90;;;;;;5090411;28;20169;-69
2021/10/15 03:26:21;;;;;;;4.40;4.00;;;11.80;99.90;;;;;;5090289;28;20189;-69
2021/10/15 03:28:47;;;;;;;6.30;3.80;;;11.80;99.90;;;;;;5090431;28;20178;-69
2021/10/15 03:31:12;;;;;;;4.73;4.00;;;11.80;99.90;;;;;;5090391;28;20538;-69
2021/10/15 03:33:38;;;;;;;5.23;4.40;;;11.80;99.90;;;;;;5089219;28;20177;-68
2021/10/15 03:36:04;;;;;;;5.50;4.00;;;11.80;99.90;;;;;;5069918;28;20186;-69
2021/10/15 03:38:29;;;;;;;5.43;4.43;;;11.80;99.90;;;;;;5069864;28;20170;-69
2021/10/15 03:40:55;;;;;;;6.87;4.50;;;11.80;99.90;;;;;;5069800;28;20423;-69
2021/10/15 03:43:20;;;;;;;7.93;4.40;;;11.80;99.90;;;;;;5069721;28;20211;-68
2021/10/15 03:45:46;;;;;;;7.10;3.40;;;11.80;99.90;;;;;;5069837;28;20167;-69
2021/10/15 03:48:11;;;;;;;5.40;3.70;;;11.80;99.90;;;;;;5069603;28;20275;-69
2021/10/15 03:50:37;;;;;;;4.93;4.00;;;11.80;99.90;;;;;;5074740;28;20583;-69
2021/10/15 03:53:02;;;;;;;4.97;4.43;;;11.80;99.90;;;;;;5088600;28;20185;-70
2021/10/15 03:55:28;;;;;;;6.57;4.23;;;11.80;99.90;;;;;;5088056;28;20272;-70
2021/10/15 03:57:53;;;;;;;4.20;3.80;;;11.80;99.90;;;;;;5088790;28;20188;-69
2021/10/15 04:00:19;;;;;;;3.97;3.63;;;11.80;99.90;;;;;;5089826;28;20174;-70
2021/10/15 04:02:46;;;;;;;3.83;3.43;;;11.80;99.90;;;;;;5089678;28;20197;-69
2021/10/15 04:05:13;;;;;;;5.00;3.27;;;11.80;99.90;;;;;;5089522;28;20174;-69
2021/10/15 04:07:39;;;;;;;4.80;3.20;;;11.80;99.90;;;;;;5089862;28;20419;-69
2021/10/15 04:10:06;;;;;;;4.50;3.17;;;11.80;99.90;;;;;;5089740;28;20410;-70
2021/10/15 04:12:32;;;;;;;4.57;3.33;;;11.80;99.90;;;;;;5089516;28;20412;-70
2021/10/15 04:14:59;;;;;;;4.00;3.17;;;11.80;99.90;;;;;;5089310;28;20457;-69
2021/10/15 04:17:24;;;;;;;4.77;3.60;;;11.80;99.90;;;;;;5089634;28;20209;-69
2021/10/15 04:19:50;;;;;;;7.17;3.63;;;11.80;99.90;;;;;;5089594;28;20459;-69
2021/10/15 04:22:15;;;;;;;5.33;3.70;;;11.80;99.90;;;;;;5089097;28;20192;-69
2021/10/15 04:24:41;;;;;;;4.57;3.43;;;11.80;99.90;;;;;;5089460;28;20546;-70
2021/10/15 04:27:07;;;;;;;3.43;3.00;;;11.80;99.90;;;;;;5089336;28;20660;-70
2021/10/15 04:29:33;;;;;;;3.83;3.50;;;11.80;99.90;;;;;;5089596;28;20177;-69
2021/10/15 04:31:59;;;;;;;6.90;3.63;;;11.80;99.90;;;;;;5089393;28;20452;-70
2021/10/15 04:34:25;;;;;;;4.80;3.70;;;11.80;99.90;;;;;;5082067;28;20409;-70
2021/10/15 04:36:51;;;;;;;3.47;3.13;;;11.80;99.90;;;;;;5069430;28;20428;-69
2021/10/15 04:39:16;;;;;;;4.53;3.57;;;11.80;99.90;;;;;;5069557;28;20180;-70
2021/10/15 04:41:42;;;;;;;4.03;2.50;;;11.80;99.90;;;;;;5069035;28;20198;-69
2021/10/15 04:44:07;;;;;;;3.00;2.60;;;11.90;99.90;;;;;;5069046;28;20170;-69
2021/10/15 04:46:33;;;;;;;3.80;3.20;;;11.90;99.90;;;;;;5068952;28;20192;-70
2021/10/15 04:48:59;;;;;;;3.07;2.77;;;11.90;99.90;;;;;;5069425;28;20159;-69
2021/10/15 04:51:25;;;;;;;3.77;3.30;;;11.90;99.90;;;;;;5069129;28;20181;-69
2021/10/15 04:53:51;;;;;;;3.63;2.83;;;11.90;99.90;;;;;;5068922;28;20236;-69
2021/10/15 04:56:16;;;;;;;3.93;3.50;;;11.90;99.90;;;;;;5068766;28;20432;-69
2021/10/15 04:58:42;;;;;;;4.50;2.97;;;11.90;99.90;;;;;;5069315;28;20171;-69
2021/10/15 05:01:07;;;;;;;5.10;4.20;;;11.90;99.90;;;;;;5069035;28;20760;-69
2021/10/15 05:03:33;;;;;;;4.23;2.70;;;11.90;99.90;;;;;;5068869;28;20619;-69
2021/10/15 05:05:58;;;;;;;3.50;2.87;;;11.90;99.90;;;;;;5087615;28;20212;-69
2021/10/15 05:08:30;;;;;;;4.97;4.13;;;11.90;99.90;;;;;;5089190;28;20249;-69
2021/10/15 05:10:55;;;;;;;3.80;3.40;;;11.90;99.90;;;;;;5088863;28;20644;-69
2021/10/15 05:13:21;;;;;;;4.13;2.73;;;11.90;99.90;;;;;;5088916;28;20444;-69
2021/10/15 05:15:47;;;;;;;3.50;3.20;;;11.90;99.90;;;;;;5088685;28;20197;-69
2021/10/15 05:18:14;;;;;;;7.23;3.07;;;11.90;99.90;;;;;;5088572;28;20193;-69
2021/10/15 05:20:40;;;;;;;4.07;3.50;;;11.90;99.90;;;;;;5088710;28;20402;-69
2021/10/15 05:23:05;;;;;;;3.60;2.97;;;11.80;99.90;;;;;;5088617;28;20482;-69
2021/10/15 05:25:31;;;;;;;3.87;3.10;;;11.80;99.90;;;;;;5088552;28;20796;-69
2021/10/15 05:27:56;;;;;;;3.13;2.83;;;11.80;99.90;;;;;;5088591;28;20258;-69
2021/10/15 05:30:22;;;;;;;3.47;3.17;;;11.80;99.90;;;;;;5089037;28;20166;-69
2021/10/15 05:32:48;;;;;;;4.20;3.17;;;11.80;99.90;;;;;;5088857;28;20224;-70
2021/10/15 05:35:13;;;;;;;4.10;3.63;;;11.80;99.90;;;;;;5091914;28;20415;-69
2021/10/15 05:37:39;;;;;;;6.37;3.53;;;11.80;99.90;;;;;;5092364;28;20188;-69
2021/10/15 05:40:06;;;;;;;5.97;4.37;;;11.80;99.90;;;;;;5092290;28;20169;-69
2021/10/15 05:42:31;;;;;;;8.77;3.77;;;11.80;99.90;;;;;;5092344;28;20193;-69
2021/10/15 05:44:57;;;;;;;4.03;3.20;;;11.80;99.90;;;;;;5092788;28;20401;-69
2021/10/15 05:47:22;;;;;;;3.40;2.90;;;11.80;99.90;;;;;;5091077;28;20174;-69
2021/10/15 05:49:48;;;;;;;4.27;3.43;;;11.70;99.90;;;;;;5092258;28;20689;-69
2021/10/15 05:52:26;;;;;;;5.13;4.20;;;11.70;99.90;;;;;;5092186;28;20708;-69
2021/10/15 05:55:05;;;;;;;7.80;3.57;;;11.80;99.90;;;;;;5090867;28;20778;-69
2021/10/15 06:00:00;;;;;;;3.13;2.83;;;11.80;99.90;;;;;;5092223;28;20404;-69
2021/10/15 06:02:32;;;;;;;3.53;2.73;;;11.80;99.90;;;;;;5091962;28;21141;-69
2021/10/15 06:09:24;;;;;;;4.53;3.27;;;11.90;99.90;;;;;;5091883;28;20414;-69
2021/10/15 06:15:54;;;;;;;3.70;3.13;;;11.90;99.90;;;;;;5091869;28;20502;-70
2021/10/15 06:18:22;;;;;;;3.80;3.03;;;11.90;99.90;;;;;;5090117;28;20498;-70
2021/10/15 06:20:49;;;;;;;9.80;3.93;;;12.00;99.90;;;;;;5090157;28;20193;-69
2021/10/15 06:23:15;;;;;;;3.63;3.33;;;12.00;99.90;;;;;;5090635;28;20451;-69
2021/10/15 06:25:41;;;;;;;2.13;1.93;;;12.00;99.90;;;;;;5091846;28;20461;-68
2021/10/15 06:28:08;;;;;;;5.13;3.00;;;12.00;99.90;;;;;;5091560;28;20428;-68
2021/10/15 06:30:34;;;;;;;2.87;2.57;;;12.10;99.90;;;;;;5091939;28;20540;-69
2021/10/15 06:33:00;;;;;;;4.10;2.87;;;12.10;99.90;;;;;;5090296;28;20949;-69
2021/10/15 06:35:25;;;;;;;3.63;2.87;;;12.20;99.90;;;;;;5091418;28;20415;-69
2021/10/15 06:37:51;;;;;;;3.63;2.90;;;12.20;99.90;;;;;;5091780;28;20194;-70
2021/10/15 06:40:17;;;;;;;4.20;2.77;;;12.30;99.90;;;;;;5091702;28;20177;-69
2021/10/15 06:42:43;;;;;;;2.53;2.07;;;12.20;99.90;;;;;;5091173;28;20209;-70
2021/10/15 06:45:09;;;;;;;2.30;1.87;;;12.20;99.90;;;;;;5091050;28;20411;-69
2021/10/15 06:47:34;;;;;;;3.27;2.97;;;12.30;99.90;;;;;;5091176;28;20188;-70
2021/10/15 06:50:00;;;;;;;3.20;2.60;;;12.30;99.90;;;;;;5091109;28;20773;-70
2021/10/15 06:52:26;;;;;;;2.83;2.10;;;12.30;99.90;;;;;;5091122;28;20625;-69
2021/10/15 06:54:51;;;;;;;2.23;2.03;;;12.30;99.90;;;;;;5090976;28;20170;-70
2021/10/15 06:57:17;;;;;;;2.20;1.67;;;12.30;99.90;;;;;;5090834;28;20715;-69
2021/10/15 06:59:43;;;;;;;2.27;2.07;;;12.30;99.90;;;;;;5090973;28;20177;-68
2021/10/15 07:02:09;;;;;;;3.30;2.20;;;12.30;99.90;;;;;;5090997;28;20571;-69
2021/10/15 07:04:34;;;;;;;2.37;1.97;;;12.30;99.90;;;;;;5090725;28;20391;-69
2021/10/15 07:07:00;;;;;;;2.33;2.13;;;12.30;99.90;;;;;;5090940;28;20427;-69
2021/10/15 07:09:26;;;;;;;3.03;2.47;;;12.30;99.90;;;;;;5091184;28;20254;-68
2021/10/15 07:11:51;;;;;;;1.83;1.73;;;12.40;99.90;;;;;;5091345;28;20479;-68
2021/10/15 07:14:17;;;;;;;1.97;1.83;;;12.40;99.90;;;;;;5091135;28;20169;-69
2021/10/15 07:16:43;;;;;;;2.23;1.90;;;12.40;99.90;;;;;;5091113;28;20189;-68
2021/10/15 07:19:09;;;;;;;4.20;2.20;;;12.40;99.90;;;;;;5091034;28;20193;-71
2021/10/15 07:21:35;;;;;;;3.50;2.23;;;12.40;99.90;;;;;;5091084;28;20991;-69
2021/10/15 07:24:01;;;;;;;1.70;1.57;;;12.50;99.90;;;;;;5091278;28;20435;-69
2021/10/15 07:26:26;;;;;;;2.40;1.57;;;12.50;99.90;;;;;;5090983;28;20454;-69
2021/10/15 07:28:52;;;;;;;3.13;2.27;;;12.50;99.90;;;;;;5091031;28;20170;-69
2021/10/15 07:31:18;;;;;;;2.37;2.00;;;12.60;99.90;;;;;;5090941;28;20166;-69
2021/10/15 07:33:44;;;;;;;2.23;2.00;;;12.60;99.90;;;;;;5090740;28;20703;-69
2021/10/15 07:36:09;;;;;;;2.77;2.37;;;12.50;99.90;;;;;;5090735;28;20558;-69
2021/10/15 07:38:37;;;;;;;2.63;2.10;;;12.50;99.90;;;;;;5090830;28;21129;-68
2021/10/15 07:41:04;;;;;;;3.33;2.53;;;12.60;99.90;;;;;;5090565;28;20170;-70
2021/10/15 07:43:29;;;;;;;2.60;1.80;;;12.60;99.90;;;;;;5090547;28;20413;-69
2021/10/15 07:45:55;;;;;;;2.87;1.57;;;12.60;99.90;;;;;;5090589;28;20934;-68
2021/10/15 07:48:20;;;;;;;1.63;1.53;;;12.70;99.90;;;;;;5090596;28;20168;-69
2021/10/15 07:50:46;;;;;;;3.17;2.47;;;12.70;99.90;;;;;;5090559;28;20188;-69
2021/10/15 07:53:12;;;;;;;2.60;2.13;;;12.80;99.90;;;;;;5090440;28;20189;-69
2021/10/15 07:55:37;;;;;;;2.37;2.17;;;12.80;99.90;;;;;;5090205;28;20173;-69
2021/10/15 07:58:02;;;;;;;1.90;1.70;;;12.80;99.90;;;;;;5090069;28;20246;-69
2021/10/15 08:00:28;;;;;;;2.50;2.27;;;12.80;99.90;;;;;;5090719;28;20174;-70
2021/10/15 08:02:55;;;;;;;3.00;1.80;;;12.90;99.90;;;;;;5090194;28;20284;-70
2021/10/15 08:05:21;;;;;;;2.70;1.97;;;12.90;99.90;;;;;;5089938;28;20204;-70
2021/10/15 08:07:46;;;;;;;5.67;1.70;;;13.10;99.90;;;;;;5090095;28;20455;-69
2021/10/15 08:10:12;;;;;;;2.67;1.77;;;13.00;99.90;;;;;;5089928;28;20963;-69
2021/10/15 08:12:38;;;;;;;2.30;1.50;;;13.10;99.90;;;;;;5090344;28;20714;-69
2021/10/15 08:15:09;;;;;;;2.33;1.67;;;13.00;99.90;;;;;;5089945;28;20215;-69
2021/10/15 08:17:35;;;;;;;1.27;1.17;;;13.00;99.90;;;;;;5089874;28;20424;-68
2021/10/15 08:20:00;;;;;;;1.47;1.30;;;13.10;99.90;;;;;;5089902;28;20430;-69
2021/10/15 08:22:26;;;;;;;2.30;1.50;;;13.10;99.90;;;;;;5089768;28;20189;-69
2021/10/15 08:24:52;;;;;;;2.10;1.60;;;13.10;99.90;;;;;;5088311;28;20166;-68
2021/10/15 08:27:17;;;;;;;1.67;1.47;;;13.10;99.90;;;;;;5090062;28;20446;-68
2021/10/15 08:29:43;;;;;;;2.60;2.17;;;13.10;99.90;;;;;;5091228;28;20209;-69
2021/10/15 08:32:08;;;;;;;1.80;1.70;;;13.20;99.90;;;;;;5083998;28;20186;-68
2021/10/15 08:34:34;;;;;;;4.27;1.57;;;13.10;99.90;;;;;;5080105;28;20228;-69
2021/10/15 08:37:00;;;;;;;5.27;1.40;;;13.10;99.90;;;;;;5077928;28;20198;-68
2021/10/15 08:39:28;;;;;;;1.53;1.40;;;13.10;99.90;;;;;;5071397;28;20257;-68
2021/10/15 08:41:55;;;;;;;1.93;1.40;;;13.10;99.90;;;;;;5072636;28;20206;-69
2021/10/15 08:44:21;;;;;;;2.37;1.23;;;13.20;99.90;;;;;;5091593;28;20423;-69
2021/10/15 08:46:46;;;;;;;1.53;1.43;;;13.30;99.90;;;;;;5092368;28;20439;-69
2021/10/15 08:49:12;;;;;;;2.50;2.00;;;13.30;99.90;;;;;;5080672;28;20220;-70
2021/10/15 08:51:38;;;;;;;2.33;1.60;;;13.40;99.90;;;;;;5085052;28;20182;-70
2021/10/15 08:54:03;;;;;;;1.97;1.57;;;13.40;99.90;;;;;;5075233;28;20205;-68
2021/10/15 08:56:31;;;;;;;1.73;1.63;;;13.40;99.90;;;;;;5090784;28;20805;-68
2021/10/15 08:58:59;;;;;;;2.87;1.40;;;13.40;99.90;;;;;;5092099;28;20423;-70
2021/10/15 09:01:29;;;;;;;4.83;1.43;;;13.50;99.90;;;;;;5096312;28;20460;-72
2021/10/15 09:04:02;;;;;;;1.67;1.57;;;13.60;99.90;;;;;;5073903;28;20445;-70
2021/10/15 09:06:34;;;;;;;2.13;1.43;;;13.60;99.90;;;;;;5071161;28;20447;-70
2021/10/15 09:09:00;;;;;;;2.33;1.23;;;13.50;99.90;;;;;;5076654;28;20412;-70
2021/10/15 09:11:33;;;;;;;1.83;1.30;;;13.50;99.90;;;;;;5075163;28;20416;-70
2021/10/15 09:14:21;;;;;;;1.60;1.17;;;13.40;99.90;;;;;;5074961;28;20184;-70
2021/10/15 09:17:09;;;;;;;3.17;1.70;;;13.50;99.90;;;;;;5079466;28;20849;-70
2021/10/15 09:19:56;;;;;;;2.00;1.47;;;13.50;99.90;;;;;;5095180;28;20792;-70
2021/10/15 09:22:25;;;;;;;1.47;1.37;;;13.50;99.90;;;;;;5094774;28;20494;-70
2021/10/15 09:24:59;;;;;;;1.33;1.17;;;13.50;99.90;;;;;;5094949;28;20456;-70
2021/10/15 09:27:39;;;;;;;1.20;1.03;;;13.50;99.90;;;;;;5094986;28;20435;-70
2021/10/15 09:30:06;;;;;;;1.60;1.37;;;13.60;99.90;;;;;;5095145;28;20419;-69
2021/10/15 09:32:36;;;;;;;2.00;1.80;;;13.70;99.90;;;;;;5095025;28;20427;-70
2021/10/15 09:35:03;;;;;;;1.30;1.20;;;13.70;99.90;;;;;;5093933;28;20424;-70
2021/10/15 09:37:31;;;;;;;1.57;1.47;;;13.80;99.90;;;;;;5090709;28;20444;-70
2021/10/15 09:40:07;;;;;;;1.70;1.60;;;13.90;99.90;;;;;;5074549;28;20416;-70
2021/10/15 09:42:34;;;;;;;2.23;1.20;;;13.90;99.90;;;;;;5084872;28;20876;-70
2021/10/15 09:45:17;;;;;;;1.60;1.50;;;13.90;99.90;;;;;;5094592;28;20412;-70
2021/10/15 09:47:47;;;;;;;1.30;1.07;;;13.90;99.90;;;;;;5094487;28;20518;-70
2021/10/15 09:50:15;;;;;;;1.73;1.30;;;14.00;99.90;;;;;;5094608;28;20517;-70
2021/10/15 09:52:46;;;;;;;1.90;1.10;;;13.90;99.90;;;;;;5083020;28;20436;-70
2021/10/15 09:55:28;;;;;;;1.57;1.20;;;13.90;99.90;;;;;;5094352;28;20424;-70
2021/10/15 09:57:55;;;;;;;1.90;1.30;;;13.90;99.90;;;;;;5093908;28;20461;-70
2021/10/15 10:00:24;;;;;;;1.33;1.23;;;13.80;99.90;;;;;;5073966;28;20451;-71
2021/10/15 10:02:50;;;;;;;2.07;1.67;;;13.80;99.90;;;;;;5074137;28;20471;-71
2021/10/15 10:05:17;;;;;;;2.07;1.30;;;13.90;99.90;;;;;;5077764;28;20473;-70
2021/10/15 10:07:45;;;;;;;1.50;1.40;;;13.80;99.90;;;;;;5073917;28;20440;-70
2021/10/15 10:10:15;;;;;;;1.80;1.37;;;13.80;99.90;;;;;;5073783;28;20569;-70
2021/10/15 10:12:41;;;;;;;1.53;1.30;;;13.80;99.90;;;;;;5073666;28;20432;-70
2021/10/15 10:15:10;;;;;;;1.60;1.47;;;13.70;99.90;;;;;;5072234;28;20738;-70
2021/10/15 10:17:43;;;;;;;1.03;0.93;;;13.80;99.90;;;;;;5074004;28;20802;-70
2021/10/15 10:20:13;;;;;;;1.30;1.03;;;13.90;99.90;;;;;;5075434;28;20866;-70
2021/10/15 10:22:55;;;;;;;1.00;0.90;;;13.90;99.90;;;;;;5073751;28;20521;-70
2021/10/15 10:25:24;;;;;;;1.57;1.40;;;14.00;99.90;;;;;;5084301;28;20437;-70
2021/10/15 10:27:51;;;;;;;1.50;1.30;;;13.90;99.90;;;;;;5089118;28;20483;-73
2021/10/15 10:30:33;;;;;;;1.13;1.00;;;13.90;99.90;;;;;;5093839;28;20527;-71
2021/10/15 10:33:00;;;;;;;1.90;1.30;;;13.90;99.90;;;;;;5093311;28;20415;-74
2021/10/15 10:35:28;;;;;;;2.10;1.60;;;13.90;99.90;;;;;;5085334;28;20812;-70
2021/10/15 10:38:19;;;;;;;2.33;1.10;;;13.80;99.90;;;;;;5093818;28;20451;-72
2021/10/15 10:40:59;;;;;;;1.37;1.20;;;13.80;99.90;;;;;;5093661;28;20460;-71
2021/10/15 10:43:26;;;;;;;0.83;0.83;;;13.70;99.90;;;;;;5074153;28;20459;-71
2021/10/15 10:46:15;;;;;;;1.47;1.10;;;13.60;99.90;;;;;;5093455;28;20515;-70
2021/10/15 10:48:46;;;;;;;3.27;1.30;;;13.60;99.90;;;;;;5093827;28;20416;-70
2021/10/15 10:51:13;;;;;;;3.97;1.67;;;13.60;99.90;;;;;;5092803;28;20421;-70
2021/10/15 10:54:04;;;;;;;1.93;1.17;;;13.40;99.90;;;;;;5093300;28;20918;-69
2021/10/15 10:56:38;;;;;;;1.20;1.10;;;13.20;99.90;;;;;;5087038;28;20442;-70
2021/10/15 10:59:16;;;;;;;1.80;1.60;;;13.10;99.90;;;;;;5093329;28;20418;-70
2021/10/15 11:02:18;;;;;;;1.87;1.47;;;12.90;99.90;;;;;;5093125;28;20436;-71
2021/10/15 11:04:43;;;;;;;1.40;1.23;;;12.90;99.90;;;;;;5084669;28;20411;-71
2021/10/15 11:07:20;;;;;;;3.30;1.90;;;12.80;99.90;;;;;;5072729;28;20429;-69
2021/10/15 11:09:55;;;;;;;2.83;1.73;;;12.70;99.90;;;;;;5073993;28;20632;-68
2021/10/15 11:12:22;;;;;;;1.50;1.40;;;12.70;99.90;;;;;;5073706;28;20422;-69
2021/10/15 11:14:55;;;;;;;2.57;1.77;;;12.70;99.90;;;;;;5072161;28;20428;-68
2021/10/15 11:17:35;;;;;;;1.63;1.50;;;12.80;99.90;;;;;;5071782;28;20812;-70
2021/10/15 11:20:09;;;;;;;1.43;1.33;;;12.70;99.90;;;;;;5071753;28;20432;-69
2021/10/15 11:22:37;;;;;;;1.40;1.30;;;12.60;99.90;;;;;;5072948;28;20483;-69
2021/10/15 11:25:04;;;;;;;2.20;1.93;;;12.60;99.90;;;;;;5056186;28;20938;-69
2021/10/15 11:27:30;;;;;;;1.47;1.37;;;12.50;99.90;;;;;;5073049;28;20523;-69
2021/10/15 11:29:59;;;;;;;2.17;2.00;;;12.60;99.90;;;;;;5073152;28;20448;-69
2021/10/15 11:32:36;;;;;;;1.73;1.50;;;12.50;99.90;;;;;;5077863;28;20186;-69
2021/10/15 11:35:10;;;;;;;1.60;1.50;;;12.50;99.90;;;;;;5089675;28;20989;-69
2021/10/15 11:37:43;;;;;;;2.60;1.90;;;12.50;99.90;;;;;;5071591;28;20528;-69
2021/10/15 11:40:28;;;;;;;1.80;1.70;;;12.40;99.90;;;;;;5076256;28;20427;-70
2021/10/15 11:43:07;;;;;;;2.70;1.67;;;12.20;99.90;;;;;;5072057;28;20459;-70
2021/10/15 11:45:36;;;;;;;2.07;1.90;;;12.30;99.90;;;;;;5090864;28;20460;-70
2021/10/15 11:48:10;;;;;;;2.80;1.77;;;12.20;99.90;;;;;;5092213;28;20445;-70
2021/10/15 11:50:47;;;;;;;2.30;1.83;;;12.10;99.90;;;;;;5092382;28;20433;-70
2021/10/15 11:53:17;;;;;;;5.17;3.40;;;12.20;99.90;;;;;;5091038;28;20423;-69
2021/10/15 11:55:44;;;;;;;2.73;2.30;;;12.10;99.90;;;;;;5092250;28;20423;-70
2021/10/15 11:58:24;;;;;;;2.13;1.93;;;11.90;99.90;;;;;;5091975;28;20542;-70
2021/10/15 12:01:09;;;;;;;2.90;1.80;;;12.00;99.90;;;;;;5092370;28;20407;-71
2021/10/15 12:03:39;;;;;;;3.00;2.03;;;11.80;99.90;;;;;;5089237;28;20433;-71
2021/10/15 12:06:27;;;;;;;2.90;2.57;;;11.80;99.90;;;;;;5071343;28;20409;-70
2021/10/15 12:08:59;;;;;;;2.00;1.57;;;11.60;99.90;;;;;;5070824;28;20778;-70
2021/10/15 12:11:41;;;;;;;2.37;1.60;;;11.50;99.90;;;;;;5071598;28;20469;-70
2021/10/15 12:14:12;;;;;;;1.40;0.90;;;11.40;99.90;;;;;;5090565;28;20454;-70
2021/10/15 12:16:41;;;;;;;1.10;1.00;;;11.40;99.90;;;;;;5091757;28;20442;-70
2021/10/15 12:19:07;;;;;;;1.30;0.83;;;11.30;99.90;;;;;;5091797;28;20936;-70
2021/10/15 12:21:50;;;;;;;0.93;0.80;;;11.40;99.90;;;;;;5088977;28;20792;-70
2021/10/15 12:24:30;;;;;;;1.20;1.03;;;11.40;99.90;;;;;;5083518;28;20489;-69
2021/10/15 12:27:12;;;;;;;1.10;1.00;;;11.40;99.90;;;;;;5071903;28;20896;-69
2021/10/15 12:30:05;;;;;;;0.80;0.80;;;11.40;99.90;;;;;;5072345;28;20420;-70
2021/10/15 12:32:37;;;;;;;1.23;1.10;;;11.40;99.90;;;;;;5069900;28;20436;-70
2021/10/15 12:35:15;;;;;;;0.83;0.77;;;11.30;99.90;;;;;;5089556;28;20427;-70
2021/10/15 12:37:49;;;;;;;1.23;1.10;;;11.20;99.90;;;;;;5077115;28;20506;-69
2021/10/15 12:40:24;;;;;;;1.83;1.10;;;11.40;99.90;;;;;;5071273;28;20456;-70
2021/10/15 12:42:59;;;;;;;1.20;1.10;;;11.40;99.90;;;;;;5072489;28;20829;-70
2021/10/15 12:45:27;;;;;;;1.27;1.00;;;11.10;99.90;;;;;;5090750;28;20415;-70
2021/10/15 12:47:58;;;;;;;1.00;1.00;;;11.10;99.90;;;;;;5092535;28;20981;-70
2021/10/15 12:50:23;;;;;;;0.90;0.90;;;11.20;99.90;;;;;;5093567;28;20431;-70
2021/10/15 12:52:49;;;;;;;0.80;0.70;;;11.30;99.90;;;;;;5085287;28;20427;-70
2021/10/15 12:55:21;;;;;;;0.63;0.63;;;11.00;99.90;;;;;;5078793;28;20415;-69
2021/10/15 12:57:49;;;;;;;0.70;0.60;;;10.90;99.90;;;;;;5092509;28;20229;-69
2021/10/15 13:00:24;;;;;;;3.50;0.97;;;11.10;99.90;;;;;;5075561;28;20423;-69
2021/10/15 13:03:07;;;;;;;1.33;0.97;;;11.00;99.90;;;;;;5085379;28;20455;-70